sensor_id;sensor_type;location;lat;lon;timestamp;temperature;humidity
85036;DHT22;75357;49.780;9.448;2024-03-23T00:53:53;6.90;90.10
85036;DHT22;75357;49.780;9.448;2024-03-23T00:56:20;7.00;89.80
85036;DHT22;75357;49.780;9.448;2024-03-23T00:58:46;7.00;89.50
85036;DHT22;75357;49.780;9.448;2024-03-23T01:01:14;7.00;89.40
85036;DHT22;75357;49.780;9.448;2024-03-23T01:03:40;7.10;89.10
85036;DHT22;75357;49.780;9.448;2024-03-23T01:06:07;7.20;88.60
85036;DHT22;75357;49.780;9.448;2024-03-23T01:08:33;7.20;88.90
85036;DHT22;75357;49.780;9.448;2024-03-23T01:11:01;7.20;89.00
85036;DHT22;75357;49.780;9.448;2024-03-23T01:13:28;7.10;89.70
85036;DHT22;75357;49.780;9.448;2024-03-23T01:15:57;7.10;89.50
85036;DHT22;75357;49.780;9.448;2024-03-23T01:18:24;7.10;90.00
85036;DHT22;75357;49.780;9.448;2024-03-23T01:20:52;7.10;89.80
85036;DHT22;75357;49.780;9.448;2024-03-23T01:23:18;7.00;89.80
85036;DHT22;75357;49.780;9.448;2024-03-23T01:25:52;7.00;90.10
85036;DHT22;75357;49.780;9.448;2024-03-23T01:28:19;6.90;90.00
85036;DHT22;75357;49.780;9.448;2024-03-23T01:30:47;6.80;90.20
85036;DHT22;75357;49.780;9.448;2024-03-23T01:33:13;6.80;90.50
85036;DHT22;75357;49.780;9.448;2024-03-23T01:35:40;6.70;90.30
85036;DHT22;75357;49.780;9.448;2024-03-23T01:38:06;6.70;90.30
85036;DHT22;75357;49.780;9.448;2024-03-23T01:40:34;6.60;90.30
85036;DHT22;75357;49.780;9.448;2024-03-23T01:43:04;6.60;90.30
85036;DHT22;75357;49.780;9.448;2024-03-23T01:45:32;6.60;90.10
85036;DHT22;75357;49.780;9.448;2024-03-23T01:47:59;6.60;90.10
85036;DHT22;75357;49.780;9.448;2024-03-23T01:50:27;6.60;90.10
85036;DHT22;75357;49.780;9.448;2024-03-23T01:52:53;6.60;90.30
85036;DHT22;75357;49.780;9.448;2024-03-23T01:55:21;6.50;90.30
85036;DHT22;75357;49.780;9.448;2024-03-23T01:57:47;6.50;90.00
85036;DHT22;75357;49.780;9.448;2024-03-23T02:00:37;6.40;90.10
85036;DHT22;75357;49.780;9.448;2024-03-23T02:03:25;6.40;90.30
85036;DHT22;75357;49.780;9.448;2024-03-23T02:05:56;6.30;90.40
85036;DHT22;75357;49.780;9.448;2024-03-23T02:08:23;6.30;90.80
85036;DHT22;75357;49.780;9.448;2024-03-23T02:10:51;6.30;91.00
85036;DHT22;75357;49.780;9.448;2024-03-23T02:13:18;6.50;91.10
85036;DHT22;75357;49.780;9.448;2024-03-23T02:15:45;6.50;90.80
85036;DHT22;75357;49.780;9.448;2024-03-23T02:18:11;6.60;90.50
85036;DHT22;75357;49.780;9.448;2024-03-23T02:20:39;6.60;90.50
85036;DHT22;75357;49.780;9.448;2024-03-23T02:23:05;6.70;90.30
85036;DHT22;75357;49.780;9.448;2024-03-23T02:25:34;6.70;90.30
85036;DHT22;75357;49.780;9.448;2024-03-23T02:28:00;6.80;90.20
85036;DHT22;75357;49.780;9.448;2024-03-23T02:30:28;6.80;90.10
85036;DHT22;75357;49.780;9.448;2024-03-23T02:32:54;6.80;90.10
85036;DHT22;75357;49.780;9.448;2024-03-23T02:35:21;6.80;90.20
85036;DHT22;75357;49.780;9.448;2024-03-23T02:37:47;6.80;90.30
85036;DHT22;75357;49.780;9.448;2024-03-23T02:40:16;6.80;90.20
85036;DHT22;75357;49.780;9.448;2024-03-23T02:42:42;6.80;90.10
85036;DHT22;75357;49.780;9.448;2024-03-23T02:45:09;6.90;90.00
85036;DHT22;75357;49.780;9.448;2024-03-23T02:47:36;6.90;89.80
85036;DHT22;75357;49.780;9.448;2024-03-23T02:50:03;6.90;89.30
85036;DHT22;75357;49.780;9.448;2024-03-23T02:52:30;6.90;89.50
85036;DHT22;75357;49.780;9.448;2024-03-23T02:54:57;6.90;89.70
85036;DHT22;75357;49.780;9.448;2024-03-23T02:57:23;6.90;89.80
85036;DHT22;75357;49.780;9.448;2024-03-23T02:59:51;6.90;89.80
85036;DHT22;75357;49.780;9.448;2024-03-23T03:02:17;6.90;90.00
85036;DHT22;75357;49.780;9.448;2024-03-23T03:04:44;6.90;90.10
85036;DHT22;75357;49.780;9.448;2024-03-23T03:07:10;6.90;90.40
85036;DHT22;75357;49.780;9.448;2024-03-23T03:09:37;7.00;90.90
85036;DHT22;75357;49.780;9.448;2024-03-23T03:12:05;7.00;90.60
85036;DHT22;75357;49.780;9.448;2024-03-23T03:14:33;7.10;90.50
85036;DHT22;75357;49.780;9.448;2024-03-23T03:17:00;7.10;90.30
85036;DHT22;75357;49.780;9.448;2024-03-23T03:19:27;7.10;90.50
85036;DHT22;75357;49.780;9.448;2024-03-23T03:21:53;7.10;90.60
85036;DHT22;75357;49.780;9.448;2024-03-23T03:24:21;7.10;90.80
85036;DHT22;75357;49.780;9.448;2024-03-23T03:26:47;7.10;90.70
85036;DHT22;75357;49.780;9.448;2024-03-23T03:29:16;7.20;90.70
85036;DHT22;75357;49.780;9.448;2024-03-23T03:31:43;7.20;90.90
85036;DHT22;75357;49.780;9.448;2024-03-23T03:34:10;7.20;91.00
85036;DHT22;75357;49.780;9.448;2024-03-23T03:36:36;7.30;91.10
85036;DHT22;75357;49.780;9.448;2024-03-23T03:39:03;7.20;90.90
85036;DHT22;75357;49.780;9.448;2024-03-23T03:41:31;7.30;90.80
85036;DHT22;75357;49.780;9.448;2024-03-23T03:43:58;7.30;90.70
85036;DHT22;75357;49.780;9.448;2024-03-23T03:46:28;7.30;90.80
85036;DHT22;75357;49.780;9.448;2024-03-23T03:48:55;7.30;90.70
85036;DHT22;75357;49.780;9.448;2024-03-23T03:51:21;7.30;90.70
85036;DHT22;75357;49.780;9.448;2024-03-23T03:53:48;7.20;90.90
85036;DHT22;75357;49.780;9.448;2024-03-23T03:56:14;7.30;90.90
85036;DHT22;75357;49.780;9.448;2024-03-23T03:58:42;7.30;90.90
85036;DHT22;75357;49.780;9.448;2024-03-23T04:01:08;7.20;91.10
85036;DHT22;75357;49.780;9.448;2024-03-23T04:03:35;7.10;91.10
85036;DHT22;75357;49.780;9.448;2024-03-23T04:06:01;7.00;91.40
85036;DHT22;75357;49.780;9.448;2024-03-23T04:08:29;7.00;91.40
85036;DHT22;75357;49.780;9.448;2024-03-23T04:10:55;7.10;91.50
85036;DHT22;75357;49.780;9.448;2024-03-23T04:13:22;7.10;91.50
85036;DHT22;75357;49.780;9.448;2024-03-23T04:15:48;7.00;91.50
85036;DHT22;75357;49.780;9.448;2024-03-23T04:18:15;7.00;91.70
85036;DHT22;75357;49.780;9.448;2024-03-23T04:20:41;7.00;91.70
85036;DHT22;75357;49.780;9.448;2024-03-23T04:23:09;7.00;91.60
85036;DHT22;75357;49.780;9.448;2024-03-23T04:25:35;7.00;91.60
85036;DHT22;75357;49.780;9.448;2024-03-23T04:28:02;7.00;91.50
85036;DHT22;75357;49.780;9.448;2024-03-23T04:30:28;7.00;91.60
85036;DHT22;75357;49.780;9.448;2024-03-23T04:32:55;7.10;91.50
85036;DHT22;75357;49.780;9.448;2024-03-23T04:35:22;7.10;91.50
85036;DHT22;75357;49.780;9.448;2024-03-23T04:37:51;7.10;91.60
85036;DHT22;75357;49.780;9.448;2024-03-23T04:40:19;7.30;91.80
85036;DHT22;75357;49.780;9.448;2024-03-23T04:42:46;7.60;91.80
85036;DHT22;75357;49.780;9.448;2024-03-23T04:45:14;7.90;91.40
85036;DHT22;75357;49.780;9.448;2024-03-23T04:47:41;8.30;90.80
85036;DHT22;75357;49.780;9.448;2024-03-23T04:50:08;8.60;90.30
85036;DHT22;75357;49.780;9.448;2024-03-23T04:52:36;8.90;89.10
85036;DHT22;75357;49.780;9.448;2024-03-23T04:55:03;9.40;86.90
85036;DHT22;75357;49.780;9.448;2024-03-23T04:57:31;9.90;84.80
85036;DHT22;75357;49.780;9.448;2024-03-23T04:59:58;10.20;82.00
85036;DHT22;75357;49.780;9.448;2024-03-23T05:02:24;10.40;81.00
85036;DHT22;75357;49.780;9.448;2024-03-23T05:04:53;10.50;80.40
85036;DHT22;75357;49.780;9.448;2024-03-23T05:07:19;10.70;80.30
85036;DHT22;75357;49.780;9.448;2024-03-23T05:09:46;10.70;79.60
85036;DHT22;75357;49.780;9.448;2024-03-23T05:12:14;10.80;78.60
85036;DHT22;75357;49.780;9.448;2024-03-23T05:14:41;11.00;77.60
85036;DHT22;75357;49.780;9.448;2024-03-23T05:17:07;11.10;77.30
85036;DHT22;75357;49.780;9.448;2024-03-23T05:19:34;11.30;76.70
85036;DHT22;75357;49.780;9.448;2024-03-23T05:22:00;11.30;76.20
85036;DHT22;75357;49.780;9.448;2024-03-23T05:24:28;11.40;76.30
85036;DHT22;75357;49.780;9.448;2024-03-23T05:26:54;11.40;76.20
85036;DHT22;75357;49.780;9.448;2024-03-23T05:29:24;11.50;76.00
85036;DHT22;75357;49.780;9.448;2024-03-23T05:31:51;11.50;76.90
85036;DHT22;75357;49.780;9.448;2024-03-23T05:34:18;11.40;77.30
85036;DHT22;75357;49.780;9.448;2024-03-23T05:36:45;11.30;77.90
85036;DHT22;75357;49.780;9.448;2024-03-23T05:39:12;11.10;80.00
85036;DHT22;75357;49.780;9.448;2024-03-23T05:41:38;10.80;81.40
85036;DHT22;75357;49.780;9.448;2024-03-23T05:44:05;10.70;82.90
85036;DHT22;75357;49.780;9.448;2024-03-23T05:46:31;10.60;82.50
85036;DHT22;75357;49.780;9.448;2024-03-23T05:49:01;10.60;84.30
85036;DHT22;75357;49.780;9.448;2024-03-23T05:51:27;10.50;84.30
85036;DHT22;75357;49.780;9.448;2024-03-23T05:53:55;10.40;85.60
85036;DHT22;75357;49.780;9.448;2024-03-23T05:56:21;10.10;87.00
85036;DHT22;75357;49.780;9.448;2024-03-23T05:58:48;9.90;88.50
85036;DHT22;75357;49.780;9.448;2024-03-23T06:01:14;9.70;89.20
85036;DHT22;75357;49.780;9.448;2024-03-23T06:03:41;9.60;90.30
85036;DHT22;75357;49.780;9.448;2024-03-23T06:06:10;9.30;89.00
85036;DHT22;75357;49.780;9.448;2024-03-23T06:08:38;9.00;87.90
85036;DHT22;75357;49.780;9.448;2024-03-23T06:11:05;8.90;88.60
85036;DHT22;75357;49.780;9.448;2024-03-23T06:13:33;8.80;89.00
85036;DHT22;75357;49.780;9.448;2024-03-23T06:16:00;8.70;86.80
85036;DHT22;75357;49.780;9.448;2024-03-23T06:18:28;8.60;87.60
85036;DHT22;75357;49.780;9.448;2024-03-23T06:20:54;8.50;87.90
85036;DHT22;75357;49.780;9.448;2024-03-23T06:23:21;8.50;87.70
85036;DHT22;75357;49.780;9.448;2024-03-23T06:25:47;8.40;87.50
85036;DHT22;75357;49.780;9.448;2024-03-23T06:28:14;8.40;87.00
85036;DHT22;75357;49.780;9.448;2024-03-23T06:30:40;8.20;85.70
85036;DHT22;75357;49.780;9.448;2024-03-23T06:33:08;8.10;85.80
85036;DHT22;75357;49.780;9.448;2024-03-23T06:35:34;8.10;85.60
85036;DHT22;75357;49.780;9.448;2024-03-23T06:38:01;8.00;85.90
85036;DHT22;75357;49.780;9.448;2024-03-23T06:40:28;7.90;85.70
85036;DHT22;75357;49.780;9.448;2024-03-23T06:42:55;8.10;85.90
85036;DHT22;75357;49.780;9.448;2024-03-23T06:45:21;8.00;85.10
85036;DHT22;75357;49.780;9.448;2024-03-23T06:47:49;8.00;84.80
85036;DHT22;75357;49.780;9.448;2024-03-23T06:50:15;8.00;85.20
85036;DHT22;75357;49.780;9.448;2024-03-23T06:52:42;8.00;85.00
85036;DHT22;75357;49.780;9.448;2024-03-23T06:55:09;8.00;85.00
85036;DHT22;75357;49.780;9.448;2024-03-23T06:57:36;7.90;85.10
85036;DHT22;75357;49.780;9.448;2024-03-23T07:00:02;7.90;84.30
85036;DHT22;75357;49.780;9.448;2024-03-23T07:02:30;7.90;84.70
85036;DHT22;75357;49.780;9.448;2024-03-23T07:04:56;7.90;83.90
85036;DHT22;75357;49.780;9.448;2024-03-23T07:07:23;7.90;84.00
85036;DHT22;75357;49.780;9.448;2024-03-23T07:09:49;8.10;83.80
85036;DHT22;75357;49.780;9.448;2024-03-23T07:12:16;8.10;83.40
85036;DHT22;75357;49.780;9.448;2024-03-23T07:14:42;8.00;83.80
85036;DHT22;75357;49.780;9.448;2024-03-23T07:17:09;7.90;85.60
85036;DHT22;75357;49.780;9.448;2024-03-23T07:19:36;7.80;85.30
85036;DHT22;75357;49.780;9.448;2024-03-23T07:22:04;7.80;85.80
85036;DHT22;75357;49.780;9.448;2024-03-23T07:24:30;7.80;85.60
85036;DHT22;75357;49.780;9.448;2024-03-23T07:26:58;7.60;86.10
85036;DHT22;75357;49.780;9.448;2024-03-23T07:29:24;7.60;86.90
85036;DHT22;75357;49.780;9.448;2024-03-23T07:31:51;7.50;87.30
85036;DHT22;75357;49.780;9.448;2024-03-23T07:34:17;7.50;87.50
85036;DHT22;75357;49.780;9.448;2024-03-23T07:36:45;7.70;87.80
85036;DHT22;75357;49.780;9.448;2024-03-23T07:39:11;7.80;86.70
85036;DHT22;75357;49.780;9.448;2024-03-23T07:41:39;7.80;86.30
85036;DHT22;75357;49.780;9.448;2024-03-23T07:44:05;7.80;85.20
85036;DHT22;75357;49.780;9.448;2024-03-23T07:46:32;7.80;85.80
85036;DHT22;75357;49.780;9.448;2024-03-23T07:48:58;7.80;84.50
85036;DHT22;75357;49.780;9.448;2024-03-23T07:51:25;7.70;85.20
85036;DHT22;75357;49.780;9.448;2024-03-23T07:53:52;7.80;85.30
85036;DHT22;75357;49.780;9.448;2024-03-23T07:56:19;7.80;85.30
85036;DHT22;75357;49.780;9.448;2024-03-23T07:58:45;7.80;84.90
85036;DHT22;75357;49.780;9.448;2024-03-23T08:01:15;7.70;84.10
85036;DHT22;75357;49.780;9.448;2024-03-23T08:03:43;7.80;84.30
85036;DHT22;75357;49.780;9.448;2024-03-23T08:06:19;8.00;83.60
85036;DHT22;75357;49.780;9.448;2024-03-23T08:08:48;8.20;82.80
85036;DHT22;75357;49.780;9.448;2024-03-23T08:11:16;8.20;81.70
85036;DHT22;75357;49.780;9.448;2024-03-23T08:13:45;8.20;81.60
85036;DHT22;75357;49.780;9.448;2024-03-23T08:16:12;8.00;81.30
85036;DHT22;75357;49.780;9.448;2024-03-23T08:18:40;8.00;81.20
85036;DHT22;75357;49.780;9.448;2024-03-23T08:21:07;8.00;80.40
85036;DHT22;75357;49.780;9.448;2024-03-23T08:23:34;8.00;80.40
85036;DHT22;75357;49.780;9.448;2024-03-23T08:26:08;8.10;79.50
85036;DHT22;75357;49.780;9.448;2024-03-23T08:28:35;8.00;79.20
85036;DHT22;75357;49.780;9.448;2024-03-23T08:31:13;7.90;78.70
85036;DHT22;75357;49.780;9.448;2024-03-23T08:33:40;8.00;79.00
85036;DHT22;75357;49.780;9.448;2024-03-23T08:36:10;8.00;77.60
85036;DHT22;75357;49.780;9.448;2024-03-23T08:38:38;7.80;77.10
85036;DHT22;75357;49.780;9.448;2024-03-23T08:41:07;7.80;78.10
85036;DHT22;75357;49.780;9.448;2024-03-23T08:43:36;7.90;77.20
85036;DHT22;75357;49.780;9.448;2024-03-23T08:46:05;8.00;77.50
85036;DHT22;75357;49.780;9.448;2024-03-23T08:48:32;7.90;76.70
85036;DHT22;75357;49.780;9.448;2024-03-23T08:51:07;7.90;76.00
85036;DHT22;75357;49.780;9.448;2024-03-23T08:53:36;7.90;76.70
85036;DHT22;75357;49.780;9.448;2024-03-23T08:56:05;7.90;76.50
85036;DHT22;75357;49.780;9.448;2024-03-23T08:58:32;7.90;76.30
85036;DHT22;75357;49.780;9.448;2024-03-23T09:01:05;7.60;76.20
85036;DHT22;75357;49.780;9.448;2024-03-23T09:03:32;7.70;76.50
85036;DHT22;75357;49.780;9.448;2024-03-23T09:05:59;7.70;76.60
85036;DHT22;75357;49.780;9.448;2024-03-23T09:08:25;7.90;76.50
85036;DHT22;75357;49.780;9.448;2024-03-23T09:10:53;7.90;75.70
85036;DHT22;75357;49.780;9.448;2024-03-23T09:13:19;8.00;75.80
85036;DHT22;75357;49.780;9.448;2024-03-23T09:15:48;8.00;75.50
85036;DHT22;75357;49.780;9.448;2024-03-23T09:18:14;7.80;75.10
85036;DHT22;75357;49.780;9.448;2024-03-23T09:20:41;7.70;76.00
85036;DHT22;75357;49.780;9.448;2024-03-23T09:23:08;7.60;75.40
85036;DHT22;75357;49.780;9.448;2024-03-23T09:25:39;7.70;75.80
85036;DHT22;75357;49.780;9.448;2024-03-23T09:28:06;8.00;75.20
85036;DHT22;75357;49.780;9.448;2024-03-23T09:30:34;8.10;74.50
85036;DHT22;75357;49.780;9.448;2024-03-23T09:33:01;8.40;73.60
85036;DHT22;75357;49.780;9.448;2024-03-23T09:35:28;8.40;72.40
85036;DHT22;75357;49.780;9.448;2024-03-23T09:37:54;8.80;72.00
85036;DHT22;75357;49.780;9.448;2024-03-23T09:40:22;9.00;71.10
85036;DHT22;75357;49.780;9.448;2024-03-23T09:42:51;9.10;70.80
85036;DHT22;75357;49.780;9.448;2024-03-23T09:45:27;9.50;69.20
85036;DHT22;75357;49.780;9.448;2024-03-23T09:47:53;9.40;68.80
85036;DHT22;75357;49.780;9.448;2024-03-23T09:50:21;9.30;68.50
85036;DHT22;75357;49.780;9.448;2024-03-23T09:52:48;9.30;67.90
85036;DHT22;75357;49.780;9.448;2024-03-23T09:55:16;9.30;66.30
85036;DHT22;75357;49.780;9.448;2024-03-23T09:57:42;9.50;67.20
85036;DHT22;75357;49.780;9.448;2024-03-23T10:00:10;9.80;67.60
85036;DHT22;75357;49.780;9.448;2024-03-23T10:02:38;9.80;64.60
85036;DHT22;75357;49.780;9.448;2024-03-23T10:05:20;9.40;62.90
85036;DHT22;75357;49.780;9.448;2024-03-23T10:07:48;9.60;62.50
85036;DHT22;75357;49.780;9.448;2024-03-23T10:10:16;9.90;63.40
85036;DHT22;75357;49.780;9.448;2024-03-23T10:12:46;9.70;61.90
85036;DHT22;75357;49.780;9.448;2024-03-23T10:17:46;9.50;60.20
85036;DHT22;75357;49.780;9.448;2024-03-23T10:20:19;9.50;61.00
85036;DHT22;75357;49.780;9.448;2024-03-23T10:22:46;9.80;62.40
85036;DHT22;75357;49.780;9.448;2024-03-23T10:25:14;9.90;59.90
85036;DHT22;75357;49.780;9.448;2024-03-23T10:27:40;10.00;56.00
85036;DHT22;75357;49.780;9.448;2024-03-23T10:30:13;9.90;57.20
85036;DHT22;75357;49.780;9.448;2024-03-23T10:32:40;10.00;57.80
85036;DHT22;75357;49.780;9.448;2024-03-23T10:35:18;10.10;59.40
85036;DHT22;75357;49.780;9.448;2024-03-23T10:37:45;10.20;57.30
85036;DHT22;75357;49.780;9.448;2024-03-23T10:40:13;10.10;57.30
85036;DHT22;75357;49.780;9.448;2024-03-23T10:42:39;10.30;57.50
85036;DHT22;75357;49.780;9.448;2024-03-23T10:45:07;10.50;57.90
85036;DHT22;75357;49.780;9.448;2024-03-23T10:47:35;10.60;57.50
85036;DHT22;75357;49.780;9.448;2024-03-23T10:50:05;10.40;56.30
85036;DHT22;75357;49.780;9.448;2024-03-23T10:52:33;10.40;51.70
85036;DHT22;75357;49.780;9.448;2024-03-23T10:55:07;10.30;51.10
85036;DHT22;75357;49.780;9.448;2024-03-23T10:57:45;10.20;50.60
85036;DHT22;75357;49.780;9.448;2024-03-23T11:00:16;10.10;51.60
85036;DHT22;75357;49.780;9.448;2024-03-23T11:02:42;10.20;51.40
85036;DHT22;75357;49.780;9.448;2024-03-23T11:05:28;10.40;51.40
85036;DHT22;75357;49.780;9.448;2024-03-23T11:07:54;10.40;49.30
85036;DHT22;75357;49.780;9.448;2024-03-23T11:10:26;10.30;48.10
85036;DHT22;75357;49.780;9.448;2024-03-23T11:12:53;10.40;49.90
85036;DHT22;75357;49.780;9.448;2024-03-23T11:15:21;10.70;51.60
85036;DHT22;75357;49.780;9.448;2024-03-23T11:18:07;10.80;51.50
85036;DHT22;75357;49.780;9.448;2024-03-23T11:20:35;10.80;49.20
85036;DHT22;75357;49.780;9.448;2024-03-23T11:23:02;11.20;49.70
85036;DHT22;75357;49.780;9.448;2024-03-23T11:25:29;11.10;49.60
85036;DHT22;75357;49.780;9.448;2024-03-23T11:27:57;11.30;49.60
85036;DHT22;75357;49.780;9.448;2024-03-23T11:30:28;11.60;49.80
85036;DHT22;75357;49.780;9.448;2024-03-23T11:32:55;11.70;48.00
85036;DHT22;75357;49.780;9.448;2024-03-23T11:35:31;12.20;50.10
85036;DHT22;75357;49.780;9.448;2024-03-23T11:40:40;11.80;46.00
85036;DHT22;75357;49.780;9.448;2024-03-23T11:43:08;11.50;44.20
85036;DHT22;75357;49.780;9.448;2024-03-23T11:45:38;11.40;45.40
85036;DHT22;75357;49.780;9.448;2024-03-23T11:48:07;11.30;44.80
85036;DHT22;75357;49.780;9.448;2024-03-23T11:50:40;11.10;46.30
85036;DHT22;75357;49.780;9.448;2024-03-23T11:55:48;10.80;46.50
85036;DHT22;75357;49.780;9.448;2024-03-23T11:58:16;10.70;47.20
85036;DHT22;75357;49.780;9.448;2024-03-23T12:00:55;10.70;47.80
85036;DHT22;75357;49.780;9.448;2024-03-23T12:03:21;10.50;48.20
85036;DHT22;75357;49.780;9.448;2024-03-23T12:05:52;9.90;52.60
85036;DHT22;75357;49.780;9.448;2024-03-23T12:08:39;9.60;55.30
85036;DHT22;75357;49.780;9.448;2024-03-23T12:11:17;8.90;60.80
85036;DHT22;75357;49.780;9.448;2024-03-23T12:13:44;8.20;64.40
85036;DHT22;75357;49.780;9.448;2024-03-23T12:16:18;8.00;68.80
85036;DHT22;75357;49.780;9.448;2024-03-23T12:18:48;7.80;69.00
85036;DHT22;75357;49.780;9.448;2024-03-23T12:21:17;8.00;69.40
85036;DHT22;75357;49.780;9.448;2024-03-23T12:23:43;8.30;68.80
85036;DHT22;75357;49.780;9.448;2024-03-23T12:26:12;8.40;69.40
85036;DHT22;75357;49.780;9.448;2024-03-23T12:28:39;8.60;68.30
85036;DHT22;75357;49.780;9.448;2024-03-23T12:31:06;8.80;67.50
85036;DHT22;75357;49.780;9.448;2024-03-23T12:33:32;9.20;66.10
85036;DHT22;75357;49.780;9.448;2024-03-23T12:36:00;9.30;65.30
85036;DHT22;75357;49.780;9.448;2024-03-23T12:38:26;9.40;64.60
85036;DHT22;75357;49.780;9.448;2024-03-23T12:40:54;9.10;61.10
85036;DHT22;75357;49.780;9.448;2024-03-23T12:43:20;9.10;61.10
85036;DHT22;75357;49.780;9.448;2024-03-23T12:45:48;8.80;61.00
85036;DHT22;75357;49.780;9.448;2024-03-23T12:48:14;9.00;60.80
85036;DHT22;75357;49.780;9.448;2024-03-23T12:50:41;8.90;60.70
85036;DHT22;75357;49.780;9.448;2024-03-23T12:53:07;9.20;60.30
85036;DHT22;75357;49.780;9.448;2024-03-23T12:55:35;9.20;60.10
85036;DHT22;75357;49.780;9.448;2024-03-23T12:58:01;9.40;59.80
85036;DHT22;75357;49.780;9.448;2024-03-23T13:00:28;9.60;58.90
85036;DHT22;75357;49.780;9.448;2024-03-23T13:02:55;9.70;58.80
85036;DHT22;75357;49.780;9.448;2024-03-23T13:05:22;9.70;58.60
85036;DHT22;75357;49.780;9.448;2024-03-23T13:07:48;9.40;58.70
85036;DHT22;75357;49.780;9.448;2024-03-23T13:10:15;9.40;58.10
85036;DHT22;75357;49.780;9.448;2024-03-23T13:12:41;9.70;59.00
85036;DHT22;75357;49.780;9.448;2024-03-23T13:15:09;9.90;58.20
85036;DHT22;75357;49.780;9.448;2024-03-23T13:17:35;10.10;56.80
85036;DHT22;75357;49.780;9.448;2024-03-23T13:20:02;10.10;55.70
85036;DHT22;75357;49.780;9.448;2024-03-23T13:22:29;10.10;56.20
85036;DHT22;75357;49.780;9.448;2024-03-23T13:24:57;10.20;56.50
85036;DHT22;75357;49.780;9.448;2024-03-23T13:27:25;10.40;56.40
85036;DHT22;75357;49.780;9.448;2024-03-23T13:29:53;10.50;55.70
85036;DHT22;75357;49.780;9.448;2024-03-23T13:32:19;10.70;56.30
85036;DHT22;75357;49.780;9.448;2024-03-23T13:34:46;10.50;55.60
85036;DHT22;75357;49.780;9.448;2024-03-23T13:37:16;10.50;56.40
85036;DHT22;75357;49.780;9.448;2024-03-23T13:39:43;10.90;56.20
85036;DHT22;75357;49.780;9.448;2024-03-23T13:42:09;11.20;54.70
85036;DHT22;75357;49.780;9.448;2024-03-23T13:44:38;11.00;54.50
85036;DHT22;75357;49.780;9.448;2024-03-23T13:47:05;11.10;53.00
85036;DHT22;75357;49.780;9.448;2024-03-23T13:49:31;10.50;54.90
85036;DHT22;75357;49.780;9.448;2024-03-23T13:51:59;10.50;55.00
85036;DHT22;75357;49.780;9.448;2024-03-23T13:54:29;10.50;54.70
85036;DHT22;75357;49.780;9.448;2024-03-23T13:56:57;10.60;55.30
85036;DHT22;75357;49.780;9.448;2024-03-23T13:59:23;10.60;55.80
85036;DHT22;75357;49.780;9.448;2024-03-23T14:01:51;10.40;57.10
85036;DHT22;75357;49.780;9.448;2024-03-23T14:04:17;10.20;56.20
85036;DHT22;75357;49.780;9.448;2024-03-23T14:06:46;10.00;56.00
85036;DHT22;75357;49.780;9.448;2024-03-23T14:09:13;9.80;58.00
85036;DHT22;75357;49.780;9.448;2024-03-23T14:11:41;9.90;58.60
85036;DHT22;75357;49.780;9.448;2024-03-23T14:14:09;9.90;57.70
85036;DHT22;75357;49.780;9.448;2024-03-23T14:16:36;10.10;56.50
85036;DHT22;75357;49.780;9.448;2024-03-23T14:19:03;10.10;55.80
85036;DHT22;75357;49.780;9.448;2024-03-23T14:21:31;9.80;57.20
85036;DHT22;75357;49.780;9.448;2024-03-23T14:23:57;9.80;57.20
85036;DHT22;75357;49.780;9.448;2024-03-23T14:26:27;9.80;57.20
85036;DHT22;75357;49.780;9.448;2024-03-23T14:28:53;9.70;57.50
85036;DHT22;75357;49.780;9.448;2024-03-23T14:31:21;9.60;57.30
85036;DHT22;75357;49.780;9.448;2024-03-23T14:33:47;9.50;58.20
85036;DHT22;75357;49.780;9.448;2024-03-23T14:36:16;9.60;57.80
85036;DHT22;75357;49.780;9.448;2024-03-23T14:38:47;9.80;58.30
85036;DHT22;75357;49.780;9.448;2024-03-23T14:41:15;9.70;58.30
85036;DHT22;75357;49.780;9.448;2024-03-23T14:43:41;9.30;61.10
85036;DHT22;75357;49.780;9.448;2024-03-23T14:46:14;8.80;66.10
85036;DHT22;75357;49.780;9.448;2024-03-23T14:48:41;8.40;68.50
85036;DHT22;75357;49.780;9.448;2024-03-23T14:51:10;8.30;72.40
85036;DHT22;75357;49.780;9.448;2024-03-23T14:53:38;8.50;74.20
85036;DHT22;75357;49.780;9.448;2024-03-23T14:56:09;8.50;72.20
85036;DHT22;75357;49.780;9.448;2024-03-23T14:58:37;8.50;73.60
85036;DHT22;75357;49.780;9.448;2024-03-23T15:01:06;8.50;72.70
85036;DHT22;75357;49.780;9.448;2024-03-23T15:03:35;8.50;71.60
85036;DHT22;75357;49.780;9.448;2024-03-23T15:06:02;8.60;72.40
85036;DHT22;75357;49.780;9.448;2024-03-23T15:08:29;8.60;68.90
85036;DHT22;75357;49.780;9.448;2024-03-23T15:11:00;8.60;67.80
85036;DHT22;75357;49.780;9.448;2024-03-23T15:13:37;8.70;67.00
85036;DHT22;75357;49.780;9.448;2024-03-23T15:16:05;9.00;68.80
85036;DHT22;75357;49.780;9.448;2024-03-23T15:18:32;9.00;66.70
85036;DHT22;75357;49.780;9.448;2024-03-23T15:21:03;9.00;66.40
85036;DHT22;75357;49.780;9.448;2024-03-23T15:23:32;9.10;67.00
85036;DHT22;75357;49.780;9.448;2024-03-23T15:26:00;9.20;65.90
85036;DHT22;75357;49.780;9.448;2024-03-23T15:28:27;9.30;65.00
85036;DHT22;75357;49.780;9.448;2024-03-23T15:31:04;9.20;64.90
85036;DHT22;75357;49.780;9.448;2024-03-23T15:33:30;9.10;64.00
85036;DHT22;75357;49.780;9.448;2024-03-23T15:36:04;8.90;64.30
85036;DHT22;75357;49.780;9.448;2024-03-23T15:38:33;9.00;65.10
85036;DHT22;75357;49.780;9.448;2024-03-23T15:41:01;9.00;62.10
85036;DHT22;75357;49.780;9.448;2024-03-23T15:43:27;8.80;61.80
85036;DHT22;75357;49.780;9.448;2024-03-23T15:46:02;9.00;62.70
85036;DHT22;75357;49.780;9.448;2024-03-23T15:48:29;8.90;62.80
85036;DHT22;75357;49.780;9.448;2024-03-23T15:50:58;8.90;62.50
85036;DHT22;75357;49.780;9.448;2024-03-23T15:53:25;8.80;62.10
85036;DHT22;75357;49.780;9.448;2024-03-23T15:58:23;8.80;61.40
85036;DHT22;75357;49.780;9.448;2024-03-23T16:01:04;8.90;60.90
85036;DHT22;75357;49.780;9.448;2024-03-23T16:03:31;8.90;60.10
85036;DHT22;75357;49.780;9.448;2024-03-23T16:06:00;8.90;61.40
85036;DHT22;75357;49.780;9.448;2024-03-23T16:08:29;8.80;60.90
85036;DHT22;75357;49.780;9.448;2024-03-23T16:11:01;8.70;61.10
85036;DHT22;75357;49.780;9.448;2024-03-23T16:13:27;8.70;62.30
85036;DHT22;75357;49.780;9.448;2024-03-23T16:15:56;8.80;61.70
85036;DHT22;75357;49.780;9.448;2024-03-23T16:18:23;8.80;62.30
85036;DHT22;75357;49.780;9.448;2024-03-23T16:20:58;8.50;63.50
85036;DHT22;75357;49.780;9.448;2024-03-23T16:23:25;8.50;65.10
85036;DHT22;75357;49.780;9.448;2024-03-23T16:25:54;8.50;65.70
85036;DHT22;75357;49.780;9.448;2024-03-23T16:28:34;8.00;68.90
85036;DHT22;75357;49.780;9.448;2024-03-23T16:31:04;7.50;73.30
85036;DHT22;75357;49.780;9.448;2024-03-23T16:33:30;7.10;78.40
85036;DHT22;75357;49.780;9.448;2024-03-23T16:36:05;7.20;80.60
85036;DHT22;75357;49.780;9.448;2024-03-23T16:38:32;7.40;78.40
85036;DHT22;75357;49.780;9.448;2024-03-23T16:41:05;7.30;79.10
85036;DHT22;75357;49.780;9.448;2024-03-23T16:43:33;7.30;78.80
85036;DHT22;75357;49.780;9.448;2024-03-23T16:46:02;7.40;79.10
85036;DHT22;75357;49.780;9.448;2024-03-23T16:48:30;7.60;82.10
85036;DHT22;75357;49.780;9.448;2024-03-23T16:50:59;7.30;78.30